Huvudsida
METAR-TAF:

METAR-TAF

Flygplatser :

Linköping City Airport

Linköping, Sverige

latitud: 58-24N, longitud: 015-41E, höjd: 52 m

Aktuellt väderrapport

Denna rapport gjordes för 39 minuter sedan, klockan 18:20 UTC
Vind 3 kt från syd/sydväst
Temperatur 13°C
Fuktighet 77%
Tryck 1016 hPa
Sikt 10 km eller mer
Inga moln under 1 500 m eller inga cumulonimbus

METAR: ESSL 201820Z 20003KT CAVOK 13/09 Q1016

Tid: 20:59 (18:59 UTC)

Väderprognos

Denna rapport gjordes för 1 timme och 29 minuter sedan, klockan 17:30 UTC
Prognos gäller från 20 kl. 18 UTC till 20 kl. 22 UTC
Vind 5 kt från väst
Sikt 10 km eller mer
Inga moln under 1 500 m eller inga cumulonimbus

TAF: ESSL 201730Z 2018/2022 26005KT CAVOK

Aktuella väderrapporter och prognoser från 4000 flygplatser (METAR- och TAF-rapporter).

De tillgängliga stationerna syns som gula och röda prickar på kartan.

För musen över prickarna för att se namnen på stationerna.

Klicka sedan för att få väderrapporter och prognoser.

För att ändra kartan: Klicka på de gröna knapparna med ett svart kors på för att zooma in; den gröna knappen med ett streck på för att zooma ut; eller på de gröna pilarna för angränsande kartor.


METAR-TAF: